Time;durP1;ratioP1;P1;durP2;ratioP2;P2;SDS_P1;SDS_P2;PMS_P1;PMS_P2;Temp;Humidity;BMP_temperature;BMP_pressure;BME280_temperature;BME280_humidity;BME280_pressure;Samples;Min_cycle;Max_cycle;Signal;HPM_P1;HPM_P2
2021/12/25 00:00:03;;;;;;;;;;;8.30;99.90;8.70;98547.00;;;;333936;29;82531;-92
2021/12/25 00:00:15;;;;;;;;;;;8.20;99.90;8.60;98550.00;;;;332564;29;90375;-93
2021/12/25 00:00:27;;;;;;;;;;;8.30;99.90;8.60;98542.00;;;;334256;29;82310;-92
2021/12/25 00:00:39;;;;;;;;;;;8.20;99.90;8.70;98545.00;;;;335180;29;87985;-92
2021/12/25 00:00:52;;;;;;;;;;;8.20;99.90;8.70;98541.00;;;;332637;29;83295;-92
2021/12/25 00:01:06;;;;;;;;;;;8.20;99.90;8.70;98550.00;;;;334879;29;92268;-93
2021/12/25 00:01:20;;;;;;;;;;;8.20;99.90;8.70;98547.00;;;;335495;29;83440;-92
2021/12/25 00:01:33;;;;;;;;;;;8.20;99.90;8.60;98543.00;;;;333322;29;92151;-90
2021/12/25 00:01:46;;;;;;;;;;;8.20;99.90;8.60;98529.00;;;;336977;28;83395;-91
2021/12/25 00:02:01;;;;;;;;;;;8.20;99.90;8.70;98535.00;;;;333850;29;91285;-91
2021/12/25 00:02:13;;;;;;;;;;;8.20;99.90;8.80;98551.00;;;;332778;29;83438;-92
2021/12/25 00:02:26;;;;;;;;;;;8.20;99.90;8.80;98539.00;;;;334356;29;88928;-92
2021/12/25 00:02:38;;;;;;;;;;;8.20;99.90;8.70;98547.00;;;;338141;28;83600;-92
2021/12/25 00:02:51;;;;;;;;;;;8.20;99.90;8.80;98551.00;;;;331108;29;92120;-93
2021/12/25 00:03:03;;;;;;;;;;;8.20;99.90;8.80;98545.00;;;;334127;29;83376;-92
2021/12/25 00:03:16;;;;;;;;;;;8.20;99.90;8.90;98543.00;;;;333316;29;91265;-92
2021/12/25 00:03:27;;;;;;;;;;;8.30;99.90;9.00;98547.00;;;;333098;29;82351;-93
2021/12/25 00:03:39;;;;;;;;;;;8.30;99.90;8.90;98548.00;;;;334887;29;92506;-92
2021/12/25 00:03:52;;;;;;;;;;;8.30;99.90;8.80;98550.00;;;;335838;28;83506;-92
2021/12/25 00:04:04;;;;;;;;;;;8.20;99.90;8.70;98548.00;;;;332435;29;90290;-92
2021/12/25 00:04:16;;;;;;;;;;;8.30;99.90;8.60;98541.00;;;;334527;29;83460;-92
2021/12/25 00:04:28;;;;;;;;;;;8.30;99.90;8.50;98547.00;;;;334138;29;90508;-92
2021/12/25 00:04:40;;;;;;;;;;;8.20;99.90;8.40;98543.00;;;;333360;29;83463;-92
2021/12/25 00:04:52;;;;;;;;;;;8.20;99.90;8.50;98548.00;;;;333736;29;91231;-91
2021/12/25 00:05:04;;;;;;;;;;;8.20;99.90;8.40;98547.00;;;;336791;28;82556;-92
2021/12/25 00:05:16;;;;;;;;;;;8.20;99.90;8.40;98545.00;;;;333481;29;91339;-92
2021/12/25 00:05:28;;;;;;;;;;;8.20;99.90;8.40;98552.00;;;;335322;29;83485;-92
2021/12/25 00:05:40;;;;;;;;;;;8.20;99.90;8.30;98549.00;;;;336119;28;92131;-92
2021/12/25 00:05:54;;;;;;;;;;;8.20;99.90;8.40;98547.00;;;;333861;29;83510;-92
2021/12/25 00:06:06;;;;;;;;;;;8.10;99.90;8.40;98547.00;;;;333630;29;90751;-92
2021/12/25 00:06:18;;;;;;;;;;;8.10;99.90;8.40;98545.00;;;;334037;29;83425;-92
2021/12/25 00:06:30;;;;;;;;;;;8.10;99.90;8.40;98548.00;;;;335124;29;90359;-92
2021/12/25 00:06:41;;;;;;;;;;;8.10;99.90;8.40;98542.00;;;;336641;28;83319;-93
2021/12/25 00:06:53;;;;;;;;;;;8.10;99.90;8.40;98538.00;;;;336075;28;90466;-92
2021/12/25 00:07:05;;;;;;;;;;;8.10;99.90;8.40;98545.00;;;;332790;28;83547;-92
2021/12/25 00:07:17;;;;;;;;;;;8.10;99.90;8.40;98546.00;;;;335010;29;91271;-92
2021/12/25 00:07:28;;;;;;;;;;;8.10;99.90;8.40;98537.00;;;;334927;28;83481;-92
2021/12/25 00:07:40;;;;;;;;;;;8.10;99.90;8.40;98543.00;;;;334844;28;90361;-92
2021/12/25 00:07:52;;;;;;;;;;;8.00;99.90;8.40;98546.00;;;;335256;29;83455;-93
2021/12/25 00:08:04;;;;;;;;;;;8.10;99.90;8.50;98544.00;;;;335216;29;90420;-92
2021/12/25 00:08:16;;;;;;;;;;;8.00;99.90;8.60;98546.00;;;;334170;29;82529;-92
2021/12/25 00:08:28;;;;;;;;;;;8.10;99.90;8.70;98547.00;;;;333547;29;90884;-92
2021/12/25 00:08:40;;;;;;;;;;;8.10;99.90;8.70;98544.00;;;;334165;29;83578;-91
2021/12/25 00:08:52;;;;;;;;;;;8.10;99.90;8.60;98555.00;;;;334906;29;91817;-92
2021/12/25 00:09:04;;;;;;;;;;;8.10;99.90;8.60;98544.00;;;;335850;29;82544;-92
2021/12/25 00:09:16;;;;;;;;;;;8.10;99.90;8.50;98545.00;;;;332425;29;90178;-92
2021/12/25 00:09:28;;;;;;;;;;;8.10;99.90;8.50;98543.00;;;;333118;29;83416;-92
2021/12/25 00:09:39;;;;;;;;;;;8.10;99.90;8.50;98546.00;;;;336373;28;92697;-93
2021/12/25 00:09:51;;;;;;;;;;;8.10;99.90;8.50;98541.00;;;;334189;29;83124;-92
2021/12/25 00:10:05;;;;;;;;;;;8.10;99.90;8.60;98535.00;;;;334492;29;87853;-92
2021/12/25 00:10:17;;;;;;;;;;;8.10;99.90;8.60;98549.00;;;;335651;29;82494;-92
2021/12/25 00:10:30;;;;;;;;;;;8.10;99.90;8.50;98545.00;;;;332440;29;91533;-92
2021/12/25 00:10:42;;;;;;;;;;;8.10;99.90;8.60;98548.00;;;;335621;29;83597;-92
2021/12/25 00:10:54;;;;;;;;;;;8.10;99.90;8.60;98549.00;;;;336491;28;91068;-92
2021/12/25 00:11:07;;;;;;;;;;;8.10;99.90;8.60;98550.00;;;;333080;29;82479;-92
2021/12/25 00:11:19;;;;;;;;;;;8.10;99.90;8.60;98544.00;;;;335121;29;90918;-91
2021/12/25 00:11:31;;;;;;;;;;;8.10;99.90;8.50;98554.00;;;;336949;28;82461;-92
2021/12/25 00:11:43;;;;;;;;;;;8.10;99.90;8.50;98549.00;;;;333762;29;91987;-92
2021/12/25 00:11:55;;;;;;;;;;;8.10;99.90;8.50;98545.00;;;;332939;29;83565;-92
2021/12/25 00:12:07;;;;;;;;;;;8.00;99.90;8.50;98548.00;;;;332217;29;88918;-93
2021/12/25 00:12:19;;;;;;;;;;;8.00;99.90;8.40;98550.00;;;;332857;29;83671;-93
2021/12/25 00:12:31;;;;;;;;;;;8.00;99.90;8.40;98546.00;;;;333917;29;88264;-93
2021/12/25 00:12:43;;;;;;;;;;;8.00;99.90;8.40;98547.00;;;;335585;29;83058;-94
2021/12/25 00:12:55;;;;;;;;;;;8.00;99.90;8.40;98541.00;;;;335304;29;88228;-93
2021/12/25 00:13:07;;;;;;;;;;;8.00;99.90;8.40;98548.00;;;;336922;28;82356;-94
2021/12/25 00:13:19;;;;;;;;;;;8.00;99.90;8.40;98549.00;;;;335313;29;88712;-93
2021/12/25 00:13:31;;;;;;;;;;;8.00;99.90;8.50;98552.00;;;;336267;28;83457;-92
2021/12/25 00:13:43;;;;;;;;;;;8.00;99.90;8.50;98543.00;;;;336018;28;91300;-92
2021/12/25 00:13:55;;;;;;;;;;;8.00;99.90;8.60;98550.00;;;;337595;28;82451;-92
2021/12/25 00:14:11;;;;;;;;;;;8.00;99.90;8.60;98541.00;;;;336396;28;91369;-91
2021/12/25 00:14:27;;;;;;;;;;;8.00;99.90;8.60;98544.00;;;;332079;29;82565;-92
2021/12/25 00:14:39;;;;;;;;;;;8.00;99.90;8.70;98538.00;;;;330028;29;88373;-92
2021/12/25 00:14:51;;;;;;;;;;;8.00;99.90;8.70;98541.00;;;;331698;29;82270;-93
2021/12/25 00:15:04;;;;;;;;;;;8.00;99.90;8.70;98531.00;;;;336701;28;88550;-94
2021/12/25 00:15:16;;;;;;;;;;;8.00;99.90;8.60;98548.00;;;;333893;28;83324;-92
2021/12/25 00:15:28;;;;;;;;;;;8.00;99.90;8.70;98541.00;;;;333880;29;88002;-92
2021/12/25 00:15:41;;;;;;;;;;;8.10;99.90;8.70;98550.00;;;;336738;28;82492;-92
2021/12/25 00:15:53;;;;;;;;;;;8.10;99.90;8.70;98544.00;;;;336281;28;90313;-92
2021/12/25 00:16:06;;;;;;;;;;;8.10;99.90;8.70;98540.00;;;;334157;29;82601;-92
2021/12/25 00:16:17;;;;;;;;;;;8.10;99.90;8.70;98537.00;;;;333749;29;90611;-92
2021/12/25 00:16:29;;;;;;;;;;;8.10;99.90;8.60;98544.00;;;;334989;29;82521;-93
2021/12/25 00:16:41;;;;;;;;;;;8.10;99.90;8.70;98546.00;;;;333734;29;89493;-92
2021/12/25 00:16:53;;;;;;;;;;;8.10;99.90;8.60;98535.00;;;;335450;29;83402;-93
2021/12/25 00:17:05;;;;;;;;;;;8.10;99.90;8.60;98546.00;;;;333540;29;90247;-93
2021/12/25 00:17:16;;;;;;;;;;;8.10;99.90;8.50;98540.00;;;;332932;29;83239;-93
2021/12/25 00:17:29;;;;;;;;;;;8.00;99.90;8.50;98538.00;;;;334971;29;88328;-92
2021/12/25 00:17:41;;;;;;;;;;;8.00;99.90;8.40;98549.00;;;;333856;28;83503;-92
2021/12/25 00:17:52;;;;;;;;;;;8.00;99.90;8.40;98550.00;;;;333530;29;91185;-92
2021/12/25 00:18:04;;;;;;;;;;;8.00;99.90;8.40;98545.00;;;;337018;28;82674;-92
2021/12/25 00:18:16;;;;;;;;;;;8.00;99.90;8.40;98536.00;;;;335401;29;89156;-93
2021/12/25 00:18:28;;;;;;;;;;;8.00;99.90;8.30;98544.00;;;;335414;29;83537;-91
2021/12/25 00:18:40;;;;;;;;;;;8.00;99.90;8.30;98546.00;;;;334006;29;87860;-93
2021/12/25 00:18:52;;;;;;;;;;;8.00;99.90;8.30;98545.00;;;;338289;28;82354;-92
2021/12/25 00:19:07;;;;;;;;;;;8.00;99.90;8.30;98542.00;;;;333755;29;89581;-91
2021/12/25 00:19:19;;;;;;;;;;;8.00;99.90;8.30;98551.00;;;;332944;28;83590;-92
2021/12/25 00:19:31;;;;;;;;;;;7.90;99.90;8.30;98543.00;;;;332952;29;86580;-92
2021/12/25 00:19:43;;;;;;;;;;;8.00;99.90;8.40;98545.00;;;;337668;28;83491;-92
2021/12/25 00:19:55;;;;;;;;;;;8.00;99.90;8.30;98546.00;;;;333043;29;88770;-92
2021/12/25 00:20:07;;;;;;;;;;;7.90;99.90;8.30;98545.00;;;;334197;29;83279;-92
2021/12/25 00:20:19;;;;;;;;;;;7.90;99.90;8.30;98543.00;;;;337342;28;89763;-93
2021/12/25 00:20:31;;;;;;;;;;;7.90;99.90;8.30;98546.00;;;;334190;28;82547;-92
2021/12/25 00:20:43;;;;;;;;;;;7.90;99.90;8.30;98539.00;;;;332462;29;91361;-92
2021/12/25 00:20:55;;;;;;;;;;;7.90;99.90;8.30;98538.00;;;;332725;29;83564;-93
2021/12/25 00:21:07;;;;;;;;;;;7.90;99.90;8.40;98537.00;;;;332285;29;89617;-93
2021/12/25 00:21:19;;;;;;;;;;;7.90;99.90;8.50;98538.00;;;;336845;28;83180;-92
2021/12/25 00:21:31;;;;;;;;;;;7.90;99.90;8.50;98535.00;;;;335105;29;91314;-93
2021/12/25 00:21:43;;;;;;;;;;;7.90;99.90;8.50;98537.00;;;;333066;29;82427;-93
2021/12/25 00:21:55;;;;;;;;;;;7.90;99.90;8.40;98541.00;;;;333621;29;92805;-92
2021/12/25 00:22:07;;;;;;;;;;;7.90;99.90;8.50;98539.00;;;;335655;29;83107;-93
2021/12/25 00:22:19;;;;;;;;;;;7.90;99.90;8.40;98545.00;;;;333640;29;87041;-93
2021/12/25 00:22:31;;;;;;;;;;;7.90;99.90;8.40;98537.00;;;;335129;29;82336;-93
2021/12/25 00:22:43;;;;;;;;;;;7.90;99.90;8.40;98541.00;;;;335110;28;89368;-92
2021/12/25 00:22:56;;;;;;;;;;;7.90;99.90;8.40;98556.00;;;;335349;28;83324;-92
2021/12/25 00:23:08;;;;;;;;;;;7.90;99.90;8.40;98542.00;;;;336026;28;89039;-92
2021/12/25 00:23:21;;;;;;;;;;;7.90;99.90;8.40;98536.00;;;;334083;28;82372;-93
2021/12/25 00:23:33;;;;;;;;;;;7.90;99.90;8.40;98549.00;;;;337435;28;90520;-92
2021/12/25 00:23:44;;;;;;;;;;;7.90;99.90;8.40;98523.00;;;;334030;29;83153;-91
2021/12/25 00:23:56;;;;;;;;;;;7.90;99.90;8.40;98529.00;;;;336142;28;90043;-92
2021/12/25 00:24:08;;;;;;;;;;;7.90;99.90;8.40;98546.00;;;;335190;29;83403;-92
2021/12/25 00:24:21;;;;;;;;;;;7.90;99.90;8.40;98537.00;;;;334904;29;90297;-91
2021/12/25 00:24:33;;;;;;;;;;;7.90;99.90;8.40;98539.00;;;;336502;28;83499;-92
2021/12/25 00:24:45;;;;;;;;;;;7.90;99.90;8.40;98537.00;;;;336167;28;91369;-91
2021/12/25 00:24:57;;;;;;;;;;;7.90;99.90;8.30;98542.00;;;;336456;28;82456;-92
2021/12/25 00:25:09;;;;;;;;;;;7.90;99.90;8.30;98534.00;;;;336316;28;88766;-92
2021/12/25 00:25:22;;;;;;;;;;;7.90;99.90;8.20;98535.00;;;;337881;28;82343;-92
2021/12/25 00:25:37;;;;;;;;;;;7.90;99.90;8.30;98538.00;;;;330738;29;89187;-93
2021/12/25 00:25:55;;;;;;;;;;;7.90;99.90;8.40;98539.00;;;;335310;29;82292;-93
2021/12/25 00:26:13;;;;;;;;;;;7.90;99.90;8.40;98528.00;;;;337329;28;92057;-92
2021/12/25 00:26:39;;;;;;;;;;;7.90;99.90;8.50;98527.00;;;;336756;28;83462;-92
2021/12/25 00:26:58;;;;;;;;;;;7.90;99.90;8.60;98534.00;;;;335030;29;88431;-91
2021/12/25 00:27:36;;;;;;;;;;;7.90;99.90;8.50;98536.00;;;;336361;28;83425;-91
2021/12/25 00:27:52;;;;;;;;;;;7.90;99.90;8.50;98535.00;;;;333638;29;89283;-92
2021/12/25 00:28:57;;;;;;;;;;;7.90;99.90;8.50;98531.00;;;;335187;29;83426;-91
2021/12/25 00:30:42;;;;;;;;;;;7.90;99.90;8.30;98526.00;;;;336765;28;82390;-92
2021/12/25 00:32:14;;;;;;;;;;;7.80;99.90;8.30;98526.00;;;;333594;29;83521;-92
2021/12/25 00:33:17;;;;;;;;;;;7.80;99.90;8.10;98521.00;;;;332835;29;82308;-91
2021/12/25 00:34:01;;;;;;;;;;;7.80;99.90;8.10;98523.00;;;;330884;29;89396;-92
2021/12/25 00:34:14;;;;;;;;;;;7.70;99.90;8.20;98525.00;;;;332987;29;83422;-91
2021/12/25 00:34:26;;;;;;;;;;;7.70;99.90;8.20;98521.00;;;;335102;28;90182;-91
2021/12/25 00:34:38;;;;;;;;;;;7.70;99.90;8.20;98516.00;;;;331762;29;83437;-92
2021/12/25 00:34:50;;;;;;;;;;;7.70;99.90;8.20;98519.00;;;;333193;29;91181;-92
2021/12/25 00:35:02;;;;;;;;;;;7.70;99.90;8.10;98515.00;;;;333855;29;83299;-92
2021/12/25 00:35:14;;;;;;;;;;;7.70;99.90;8.20;98519.00;;;;329615;29;91701;-92
2021/12/25 00:35:27;;;;;;;;;;;7.70;99.90;8.20;98506.00;;;;333122;29;82723;-92
2021/12/25 00:35:39;;;;;;;;;;;7.70;99.90;8.20;98522.00;;;;332448;29;87851;-92
2021/12/25 00:35:51;;;;;;;;;;;7.70;99.90;8.20;98507.00;;;;332767;29;82441;-91
2021/12/25 00:36:03;;;;;;;;;;;7.70;99.90;8.20;98516.00;;;;331288;29;89472;-92
2021/12/25 00:36:17;;;;;;;;;;;7.70;99.90;8.20;98518.00;;;;334109;29;83398;-92
2021/12/25 00:36:29;;;;;;;;;;;7.70;99.90;8.20;98523.00;;;;332408;29;89149;-92
2021/12/25 00:36:41;;;;;;;;;;;7.70;99.90;8.20;98526.00;;;;330198;29;83540;-92
2021/12/25 00:36:52;;;;;;;;;;;7.70;99.90;8.20;98510.00;;;;333870;29;89909;-92
2021/12/25 00:37:04;;;;;;;;;;;7.70;99.90;8.20;98518.00;;;;333975;29;83150;-92
2021/12/25 00:37:16;;;;;;;;;;;7.70;99.90;8.20;98512.00;;;;328584;29;91708;-92
2021/12/25 00:37:28;;;;;;;;;;;7.70;99.90;8.10;98519.00;;;;333964;29;83406;-92
2021/12/25 00:37:40;;;;;;;;;;;7.70;99.90;8.10;98510.00;;;;333858;29;90733;-94
2021/12/25 00:37:52;;;;;;;;;;;7.70;99.90;8.20;98523.00;;;;332526;29;83417;-92
2021/12/25 00:38:05;;;;;;;;;;;7.70;99.90;8.20;98518.00;;;;328652;29;89788;-92
2021/12/25 00:38:17;;;;;;;;;;;7.70;99.90;8.20;98518.00;;;;332784;29;83485;-92
2021/12/25 00:38:31;;;;;;;;;;;7.70;99.90;8.20;98513.00;;;;332753;29;91592;-92
2021/12/25 00:38:43;;;;;;;;;;;7.70;99.90;8.20;98514.00;;;;332064;29;82405;-92
2021/12/25 00:38:55;;;;;;;;;;;7.70;99.90;8.10;98509.00;;;;331369;29;89458;-92
2021/12/25 00:39:07;;;;;;;;;;;7.70;99.90;8.10;98513.00;;;;334085;29;82715;-92
2021/12/25 00:39:18;;;;;;;;;;;7.70;99.90;8.10;98516.00;;;;332338;29;88236;-92
2021/12/25 00:39:31;;;;;;;;;;;7.70;99.90;8.10;98517.00;;;;331605;29;83359;-92
2021/12/25 00:39:45;;;;;;;;;;;7.70;99.90;8.10;98514.00;;;;332342;29;87113;-92
2021/12/25 00:39:57;;;;;;;;;;;7.70;99.90;8.10;98516.00;;;;332860;29;83236;-92
2021/12/25 00:40:09;;;;;;;;;;;7.70;99.90;8.20;98512.00;;;;332415;29;88587;-94
2021/12/25 00:40:22;;;;;;;;;;;7.70;99.90;8.30;98512.00;;;;331225;29;83429;-92
2021/12/25 00:40:34;;;;;;;;;;;7.70;99.90;8.20;98512.00;;;;332812;29;91327;-92
2021/12/25 00:40:46;;;;;;;;;;;7.70;99.90;8.30;98520.00;;;;332638;29;82475;-93
2021/12/25 00:40:58;;;;;;;;;;;7.70;99.90;8.20;98514.00;;;;331750;29;91693;-92
2021/12/25 00:41:14;;;;;;;;;;;7.70;99.90;8.20;98513.00;;;;333869;29;83452;-92
2021/12/25 00:41:25;;;;;;;;;;;7.70;99.90;8.20;98520.00;;;;333650;29;87817;-92
2021/12/25 00:41:37;;;;;;;;;;;7.70;99.90;8.20;98515.00;;;;333754;29;83293;-92
2021/12/25 00:41:49;;;;;;;;;;;7.70;99.90;8.20;98511.00;;;;330943;29;90769;-91
2021/12/25 00:42:01;;;;;;;;;;;7.70;99.90;8.20;98512.00;;;;332711;29;83464;-90
2021/12/25 00:42:13;;;;;;;;;;;7.70;99.90;8.20;98518.00;;;;334882;29;90019;-91
2021/12/25 00:42:25;;;;;;;;;;;7.70;99.90;8.20;98511.00;;;;334005;29;83510;-90
2021/12/25 00:42:37;;;;;;;;;;;7.70;99.90;8.30;98511.00;;;;333685;29;88329;-91
2021/12/25 00:42:49;;;;;;;;;;;7.70;99.90;8.30;98504.00;;;;333919;29;83481;-91
2021/12/25 00:43:01;;;;;;;;;;;7.70;99.90;8.30;98516.00;;;;332151;29;92060;-90
2021/12/25 00:43:13;;;;;;;;;;;7.70;99.90;8.20;98517.00;;;;334060;29;82486;-90
2021/12/25 00:43:25;;;;;;;;;;;7.70;99.90;8.20;98511.00;;;;335906;28;87909;-90
2021/12/25 00:43:36;;;;;;;;;;;7.70;99.90;8.20;98505.00;;;;333972;29;82424;-90
2021/12/25 00:43:48;;;;;;;;;;;7.70;99.90;8.20;98511.00;;;;331141;29;87985;-90
2021/12/25 00:44:00;;;;;;;;;;;7.70;99.90;8.30;98518.00;;;;333690;29;83376;-91
2021/12/25 00:44:12;;;;;;;;;;;7.70;99.90;8.40;98508.00;;;;333601;29;90517;-91
2021/12/25 00:44:25;;;;;;;;;;;7.70;99.90;8.50;98504.00;;;;331614;29;83592;-91
2021/12/25 00:44:37;;;;;;;;;;;7.70;99.90;8.60;98513.00;;;;334989;29;88165;-90
2021/12/25 00:44:49;;;;;;;;;;;7.80;99.90;8.60;98517.00;;;;334958;29;83401;-91
2021/12/25 00:45:01;;;;;;;;;;;7.80;99.90;8.50;98500.00;;;;332355;29;91456;-90
2021/12/25 00:45:13;;;;;;;;;;;7.80;99.90;8.40;98512.00;;;;335162;29;82410;-89
2021/12/25 00:45:25;;;;;;;;;;;7.80;99.90;8.40;98508.00;;;;331323;29;87192;-90
2021/12/25 00:45:37;;;;;;;;;;;7.80;99.90;8.40;98508.00;;;;330020;29;83304;-91
2021/12/25 00:45:49;;;;;;;;;;;7.80;99.90;8.40;98508.00;;;;333662;29;88659;-90
2021/12/25 00:46:01;;;;;;;;;;;7.80;99.90;8.40;98510.00;;;;335050;29;83727;-91
2021/12/25 00:46:13;;;;;;;;;;;7.80;99.90;8.40;98509.00;;;;332276;29;89679;-90
2021/12/25 00:46:25;;;;;;;;;;;7.80;99.90;8.50;98503.00;;;;333999;29;82471;-90
2021/12/25 00:46:37;;;;;;;;;;;7.80;99.90;8.50;98508.00;;;;332608;29;88699;-90
2021/12/25 00:46:49;;;;;;;;;;;7.80;99.90;8.40;98506.00;;;;333196;29;83524;-90
2021/12/25 00:47:01;;;;;;;;;;;7.80;99.90;8.40;98505.00;;;;332157;29;93374;-91
2021/12/25 00:47:13;;;;;;;;;;;7.80;99.90;8.40;98510.00;;;;331628;29;83476;-90
2021/12/25 00:47:25;;;;;;;;;;;7.80;99.90;8.40;98512.00;;;;332248;29;89930;-91
2021/12/25 00:47:37;;;;;;;;;;;7.80;99.90;8.40;98503.00;;;;335338;29;82462;-90
2021/12/25 00:47:48;;;;;;;;;;;7.80;99.90;8.40;98504.00;;;;330007;29;89300;-90
2021/12/25 00:48:00;;;;;;;;;;;7.80;99.90;8.40;98506.00;;;;330616;29;83429;-90
2021/12/25 00:48:12;;;;;;;;;;;7.80;99.90;8.40;98505.00;;;;334956;29;92462;-90
2021/12/25 00:48:24;;;;;;;;;;;7.80;99.90;8.40;98508.00;;;;334084;29;83574;-91
2021/12/25 00:48:36;;;;;;;;;;;7.80;99.90;8.50;98502.00;;;;331120;29;88053;-89
2021/12/25 00:48:48;;;;;;;;;;;7.80;99.90;8.40;98505.00;;;;334111;29;83559;-90
2021/12/25 00:48:59;;;;;;;;;;;7.80;99.90;8.30;98509.00;;;;334735;29;91518;-90
2021/12/25 00:49:12;;;;;;;;;;;7.80;99.90;8.30;98505.00;;;;330200;29;83393;-91
2021/12/25 00:49:24;;;;;;;;;;;7.80;99.90;8.30;98509.00;;;;333062;29;91555;-90
2021/12/25 00:49:36;;;;;;;;;;;7.80;99.90;8.30;98509.00;;;;333806;29;82613;-91
2021/12/25 00:49:48;;;;;;;;;;;7.80;99.90;8.30;98508.00;;;;330956;29;89715;-90
2021/12/25 00:50:00;;;;;;;;;;;7.80;99.90;8.20;98502.00;;;;334036;29;83200;-90
2021/12/25 00:50:12;;;;;;;;;;;7.80;99.90;8.20;98507.00;;;;335255;28;89665;-91
2021/12/25 00:50:24;;;;;;;;;;;7.80;99.90;8.20;98502.00;;;;331317;29;83688;-91
2021/12/25 00:50:35;;;;;;;;;;;7.80;99.90;8.20;98504.00;;;;331423;29;89027;-90
2021/12/25 00:50:47;;;;;;;;;;;7.80;99.90;8.30;98509.00;;;;333943;29;83512;-90
2021/12/25 00:50:59;;;;;;;;;;;7.80;99.90;8.30;98490.00;;;;330956;29;91465;-90
2021/12/25 00:51:11;;;;;;;;;;;7.80;99.90;8.30;98498.00;;;;331633;29;83297;-91
2021/12/25 00:51:23;;;;;;;;;;;7.80;99.90;8.30;98507.00;;;;333436;29;89150;-90
2021/12/25 00:51:34;;;;;;;;;;;7.80;99.90;8.30;98500.00;;;;332775;29;83289;-90
2021/12/25 00:51:46;;;;;;;;;;;7.80;99.90;8.30;98503.00;;;;330778;29;89957;-92
2021/12/25 00:51:59;;;;;;;;;;;7.80;99.90;8.40;98504.00;;;;331641;29;83389;-90
2021/12/25 00:52:11;;;;;;;;;;;7.80;99.90;8.40;98500.00;;;;331183;29;89552;-91
2021/12/25 00:52:22;;;;;;;;;;;7.80;99.90;8.40;98500.00;;;;333486;29;83375;-90
2021/12/25 00:52:34;;;;;;;;;;;7.80;99.90;8.40;98502.00;;;;334049;29;87931;-90
2021/12/25 00:52:46;;;;;;;;;;;7.80;99.90;8.40;98505.00;;;;332892;29;82494;-90
2021/12/25 00:52:58;;;;;;;;;;;7.80;99.90;8.30;98512.00;;;;332090;29;89625;-91
2021/12/25 00:53:10;;;;;;;;;;;7.80;99.90;8.30;98505.00;;;;335299;29;82609;-90
2021/12/25 00:53:23;;;;;;;;;;;7.80;99.90;8.30;98502.00;;;;332563;29;92555;-90
2021/12/25 00:53:34;;;;;;;;;;;7.80;99.90;8.30;98504.00;;;;331594;29;82448;-91
2021/12/25 00:53:46;;;;;;;;;;;7.80;99.90;8.30;98503.00;;;;331016;29;91596;-90
2021/12/25 00:53:58;;;;;;;;;;;7.80;99.90;8.30;98500.00;;;;332969;29;83543;-90
2021/12/25 00:54:10;;;;;;;;;;;7.80;99.90;8.30;98501.00;;;;332291;29;91036;-90
2021/12/25 00:54:23;;;;;;;;;;;7.80;99.90;8.30;98498.00;;;;331497;29;83640;-90
2021/12/25 00:54:34;;;;;;;;;;;7.80;99.90;8.30;98496.00;;;;333537;29;91601;-91
2021/12/25 00:54:46;;;;;;;;;;;7.80;99.90;8.30;98508.00;;;;334208;29;83381;-91
2021/12/25 00:54:58;;;;;;;;;;;7.80;99.90;8.20;98497.00;;;;332132;29;90663;-90
2021/12/25 00:55:11;;;;;;;;;;;7.80;99.90;8.20;98503.00;;;;331105;29;83500;-90
2021/12/25 00:55:23;;;;;;;;;;;7.70;99.90;8.20;98498.00;;;;332192;29;88318;-90
2021/12/25 00:55:35;;;;;;;;;;;7.70;99.90;8.20;98501.00;;;;335565;29;83286;-90
2021/12/25 00:55:47;;;;;;;;;;;7.80;99.90;8.20;98503.00;;;;334922;28;88193;-90
2021/12/25 00:55:58;;;;;;;;;;;7.70;99.90;8.20;98500.00;;;;334049;29;83295;-90
2021/12/25 00:56:10;;;;;;;;;;;7.70;99.90;8.20;98493.00;;;;332210;29;91151;-90
2021/12/25 00:56:22;;;;;;;;;;;7.70;99.90;8.20;98497.00;;;;331473;29;82564;-91
2021/12/25 00:56:34;;;;;;;;;;;7.70;99.90;8.20;98494.00;;;;331180;29;90003;-90
2021/12/25 00:56:46;;;;;;;;;;;7.70;99.90;8.20;98496.00;;;;334055;29;83422;-91
2021/12/25 00:56:57;;;;;;;;;;;7.70;99.90;8.20;98497.00;;;;332309;29;91920;-90
2021/12/25 00:57:09;;;;;;;;;;;7.70;99.90;8.30;98488.00;;;;330224;29;83451;-90
2021/12/25 00:57:21;;;;;;;;;;;7.70;99.90;8.20;98490.00;;;;330819;29;91701;-91
2021/12/25 00:57:33;;;;;;;;;;;7.70;99.90;8.20;98502.00;;;;335277;29;83446;-90
2021/12/25 00:57:45;;;;;;;;;;;7.70;99.90;8.20;98496.00;;;;332328;29;89847;-91
2021/12/25 00:57:57;;;;;;;;;;;7.70;99.90;8.20;98495.00;;;;331364;29;83584;-91
2021/12/25 00:58:08;;;;;;;;;;;7.70;99.90;8.20;98495.00;;;;332452;29;92595;-91
2021/12/25 00:58:20;;;;;;;;;;;7.70;99.90;8.20;98491.00;;;;332582;29;83428;-91
2021/12/25 00:58:32;;;;;;;;;;;7.70;99.90;8.30;98489.00;;;;331530;29;88154;-91
2021/12/25 00:58:44;;;;;;;;;;;7.70;99.90;8.30;98493.00;;;;333497;29;82665;-91
2021/12/25 00:58:55;;;;;;;;;;;7.70;99.90;8.30;98495.00;;;;332897;29;88277;-90
2021/12/25 00:59:07;;;;;;;;;;;7.70;99.90;8.40;98493.00;;;;333338;29;83403;-91
2021/12/25 00:59:19;;;;;;;;;;;7.80;99.90;8.40;98491.00;;;;331414;29;91314;-91
2021/12/25 00:59:32;;;;;;;;;;;7.80;99.90;8.40;98485.00;;;;331397;29;83623;-91
2021/12/25 00:59:44;;;;;;;;;;;7.80;99.90;8.30;98491.00;;;;334854;29;89665;-91
2021/12/25 00:59:56;;;;;;;;;;;7.80;99.90;8.20;98491.00;;;;332708;29;83465;-91
2021/12/25 01:00:10;;;;;;;;;;;7.80;99.90;8.20;98487.00;;;;331028;29;91055;-91
2021/12/25 01:00:22;;;;;;;;;;;7.80;99.90;8.20;98489.00;;;;332707;29;83478;-91
2021/12/25 01:00:33;;;;;;;;;;;7.80;99.90;8.20;98494.00;;;;332294;29;90399;-90
2021/12/25 01:00:45;;;;;;;;;;;7.80;99.90;8.20;98491.00;;;;332680;29;82524;-91
2021/12/25 01:00:57;;;;;;;;;;;7.80;99.90;8.30;98485.00;;;;331687;29;91801;-91
2021/12/25 01:01:10;;;;;;;;;;;7.80;99.90;8.30;98485.00;;;;336458;28;83554;-91
2021/12/25 01:01:22;;;;;;;;;;;7.80;99.90;8.20;98484.00;;;;333505;29;87702;-91
2021/12/25 01:01:34;;;;;;;;;;;7.80;99.90;8.20;98488.00;;;;331129;29;82662;-90
2021/12/25 01:01:46;;;;;;;;;;;7.80;99.90;8.20;98490.00;;;;331326;29;87204;-91
2021/12/25 01:01:59;;;;;;;;;;;7.80;99.90;8.20;98488.00;;;;330173;29;83185;-90
2021/12/25 01:02:10;;;;;;;;;;;7.70;99.90;8.20;98487.00;;;;331015;29;90410;-91
2021/12/25 01:02:22;;;;;;;;;;;7.70;99.90;8.30;98490.00;;;;330022;29;83489;-90
2021/12/25 01:02:35;;;;;;;;;;;7.70;99.90;8.40;98487.00;;;;329553;29;87485;-91
2021/12/25 01:02:47;;;;;;;;;;;7.70;99.90;8.40;98486.00;;;;335501;29;82451;-91
2021/12/25 01:02:59;;;;;;;;;;;7.70;99.90;8.30;98485.00;;;;333531;29;90563;-91
2021/12/25 01:03:11;;;;;;;;;;;7.80;99.90;8.20;98480.00;;;;331264;29;83382;-90
2021/12/25 01:03:23;;;;;;;;;;;7.70;99.90;8.20;98484.00;;;;334946;29;87908;-90
2021/12/25 01:03:35;;;;;;;;;;;7.70;99.90;8.20;98482.00;;;;332787;29;83637;-90
2021/12/25 01:03:48;;;;;;;;;;;7.70;99.90;8.30;98490.00;;;;331218;29;86637;-89
2021/12/25 01:04:00;;;;;;;;;;;7.70;99.90;8.40;98479.00;;;;330394;29;83370;-91
2021/12/25 01:04:12;;;;;;;;;;;7.70;99.90;8.40;98472.00;;;;331107;29;90094;-90
2021/12/25 01:04:25;;;;;;;;;;;7.70;99.90;8.40;98485.00;;;;332874;29;83707;-90
2021/12/25 01:04:37;;;;;;;;;;;7.80;99.90;8.40;98480.00;;;;329720;29;90870;-90
2021/12/25 01:04:49;;;;;;;;;;;7.80;99.90;8.40;98481.00;;;;333888;29;82688;-91
2021/12/25 01:05:01;;;;;;;;;;;7.80;99.90;8.30;98484.00;;;;334935;29;88231;-91
2021/12/25 01:05:13;;;;;;;;;;;7.80;99.90;8.20;98485.00;;;;332797;29;83348;-91
2021/12/25 01:05:25;;;;;;;;;;;7.80;99.90;8.20;98484.00;;;;330867;29;90295;-90
2021/12/25 01:05:37;;;;;;;;;;;7.80;99.90;8.30;98468.00;;;;332748;29;83455;-90
2021/12/25 01:05:49;;;;;;;;;;;7.70;99.90;8.30;98481.00;;;;333501;29;89641;-90
2021/12/25 01:06:00;;;;;;;;;;;7.80;99.90;8.30;98481.00;;;;331658;29;83551;-91
2021/12/25 01:06:12;;;;;;;;;;;7.80;99.90;8.30;98485.00;;;;330786;29;90099;-90
2021/12/25 01:06:24;;;;;;;;;;;7.70;99.90;8.30;98483.00;;;;332793;29;82447;-90
2021/12/25 01:06:36;;;;;;;;;;;7.70;99.90;8.20;98476.00;;;;332301;29;90102;-91
2021/12/25 01:06:48;;;;;;;;;;;7.70;99.90;8.20;98475.00;;;;331549;29;82424;-90
2021/12/25 01:06:59;;;;;;;;;;;7.70;99.90;8.20;98478.00;;;;331287;29;88460;-91
2021/12/25 01:07:12;;;;;;;;;;;7.70;99.90;8.20;98483.00;;;;332463;29;83342;-90
2021/12/25 01:07:24;;;;;;;;;;;7.70;99.90;8.20;98480.00;;;;333297;29;88931;-91
2021/12/25 01:07:36;;;;;;;;;;;7.70;99.90;8.20;98486.00;;;;334034;29;82390;-90
2021/12/25 01:07:48;;;;;;;;;;;7.70;99.90;8.10;98489.00;;;;333427;29;91046;-90